sensor_id;sensor_type;location;lat;lon;timestamp;P1;durP1;ratioP1;P2;durP2;ratioP2
10659;SDS011;5378;53.206;13.316;2023-01-10T00:01:26;4.57;;;2.13;;
10659;SDS011;5378;53.206;13.316;2023-01-10T00:04:14;3.70;;;2.40;;
10659;SDS011;5378;53.206;13.316;2023-01-10T00:07:02;3.73;;;2.00;;
10659;SDS011;5378;53.206;13.316;2023-01-10T00:09:49;7.40;;;2.50;;
10659;SDS011;5378;53.206;13.316;2023-01-10T00:12:36;5.90;;;3.23;;
10659;SDS011;5378;53.206;13.316;2023-01-10T00:15:41;6.40;;;3.50;;
10659;SDS011;5378;53.206;13.316;2023-01-10T00:18:28;6.63;;;3.20;;
10659;SDS011;5378;53.206;13.316;2023-01-10T00:21:16;4.43;;;2.40;;
10659;SDS011;5378;53.206;13.316;2023-01-10T00:24:05;6.40;;;3.17;;
10659;SDS011;5378;53.206;13.316;2023-01-10T00:27:01;4.13;;;2.57;;
10659;SDS011;5378;53.206;13.316;2023-01-10T00:29:49;4.00;;;2.10;;
10659;SDS011;5378;53.206;13.316;2023-01-10T00:32:37;6.17;;;2.80;;
10659;SDS011;5378;53.206;13.316;2023-01-10T00:35:25;5.07;;;2.70;;
10659;SDS011;5378;53.206;13.316;2023-01-10T00:38:12;3.60;;;2.37;;
10659;SDS011;5378;53.206;13.316;2023-01-10T00:41:00;6.20;;;3.10;;
10659;SDS011;5378;53.206;13.316;2023-01-10T00:44:08;5.10;;;2.67;;
10659;SDS011;5378;53.206;13.316;2023-01-10T00:46:55;4.73;;;3.03;;
10659;SDS011;5378;53.206;13.316;2023-01-10T00:49:42;13.37;;;3.33;;
10659;SDS011;5378;53.206;13.316;2023-01-10T00:52:29;7.90;;;3.50;;
10659;SDS011;5378;53.206;13.316;2023-01-10T00:55:16;6.70;;;2.90;;
10659;SDS011;5378;53.206;13.316;2023-01-10T00:58:05;4.20;;;2.33;;
10659;SDS011;5378;53.206;13.316;2023-01-10T01:00:56;8.50;;;3.87;;
10659;SDS011;5378;53.206;13.316;2023-01-10T01:03:43;6.17;;;3.13;;
10659;SDS011;5378;53.206;13.316;2023-01-10T01:06:30;7.73;;;4.00;;
10659;SDS011;5378;53.206;13.316;2023-01-10T01:09:17;5.97;;;3.40;;
10659;SDS011;5378;53.206;13.316;2023-01-10T01:12:04;9.00;;;4.23;;
10659;SDS011;5378;53.206;13.316;2023-01-10T01:14:53;4.50;;;3.43;;
10659;SDS011;5378;53.206;13.316;2023-01-10T01:17:40;6.27;;;3.10;;
10659;SDS011;5378;53.206;13.316;2023-01-10T01:20:27;5.60;;;3.60;;
10659;SDS011;5378;53.206;13.316;2023-01-10T01:23:15;11.33;;;4.10;;
10659;SDS011;5378;53.206;13.316;2023-01-10T01:26:02;9.80;;;4.70;;
10659;SDS011;5378;53.206;13.316;2023-01-10T01:28:51;7.40;;;4.47;;
10659;SDS011;5378;53.206;13.316;2023-01-10T01:31:39;13.20;;;4.63;;
10659;SDS011;5378;53.206;13.316;2023-01-10T01:34:26;11.10;;;4.10;;
10659;SDS011;5378;53.206;13.316;2023-01-10T01:37:13;9.30;;;4.93;;
10659;SDS011;5378;53.206;13.316;2023-01-10T01:40:01;7.60;;;4.17;;
10659;SDS011;5378;53.206;13.316;2023-01-10T01:42:48;10.73;;;4.23;;
10659;SDS011;5378;53.206;13.316;2023-01-10T01:45:39;9.10;;;4.97;;
10659;SDS011;5378;53.206;13.316;2023-01-10T01:48:31;8.13;;;4.20;;
10659;SDS011;5378;53.206;13.316;2023-01-10T01:51:22;7.77;;;3.73;;
10659;SDS011;5378;53.206;13.316;2023-01-10T01:54:11;9.17;;;4.97;;
10659;SDS011;5378;53.206;13.316;2023-01-10T01:56:59;10.57;;;4.13;;
10659;SDS011;5378;53.206;13.316;2023-01-10T01:59:49;9.20;;;4.60;;
10659;SDS011;5378;53.206;13.316;2023-01-10T02:02:41;10.63;;;4.33;;
10659;SDS011;5378;53.206;13.316;2023-01-10T02:05:47;8.80;;;4.83;;
10659;SDS011;5378;53.206;13.316;2023-01-10T02:08:34;9.60;;;3.70;;
10659;SDS011;5378;53.206;13.316;2023-01-10T02:11:21;7.47;;;4.07;;
10659;SDS011;5378;53.206;13.316;2023-01-10T02:14:08;11.80;;;5.97;;
10659;SDS011;5378;53.206;13.316;2023-01-10T02:16:57;10.37;;;5.53;;
10659;SDS011;5378;53.206;13.316;2023-01-10T02:19:47;10.80;;;4.87;;
10659;SDS011;5378;53.206;13.316;2023-01-10T02:26:21;17.97;;;6.07;;
10659;SDS011;5378;53.206;13.316;2023-01-10T02:29:39;11.67;;;5.23;;
10659;SDS011;5378;53.206;13.316;2023-01-10T02:32:47;24.27;;;5.63;;
10659;SDS011;5378;53.206;13.316;2023-01-10T02:35:55;14.57;;;7.33;;
10659;SDS011;5378;53.206;13.316;2023-01-10T02:38:53;12.83;;;6.03;;
10659;SDS011;5378;53.206;13.316;2023-01-10T02:41:47;20.37;;;6.73;;
10659;SDS011;5378;53.206;13.316;2023-01-10T02:44:43;15.00;;;6.30;;
10659;SDS011;5378;53.206;13.316;2023-01-10T02:47:34;18.10;;;7.13;;
10659;SDS011;5378;53.206;13.316;2023-01-10T02:50:30;15.83;;;7.40;;
10659;SDS011;5378;53.206;13.316;2023-01-10T02:53:31;16.77;;;6.70;;
10659;SDS011;5378;53.206;13.316;2023-01-10T02:56:47;16.50;;;5.77;;
10659;SDS011;5378;53.206;13.316;2023-01-10T02:59:59;13.77;;;6.70;;
10659;SDS011;5378;53.206;13.316;2023-01-10T03:03:01;23.33;;;6.77;;
10659;SDS011;5378;53.206;13.316;2023-01-10T03:06:09;17.63;;;6.60;;
10659;SDS011;5378;53.206;13.316;2023-01-10T03:09:05;20.03;;;6.93;;
10659;SDS011;5378;53.206;13.316;2023-01-10T03:12:00;16.97;;;6.60;;
10659;SDS011;5378;53.206;13.316;2023-01-10T03:14:55;16.90;;;7.47;;
10659;SDS011;5378;53.206;13.316;2023-01-10T03:17:45;13.03;;;6.50;;
10659;SDS011;5378;53.206;13.316;2023-01-10T03:20:35;14.07;;;6.97;;
10659;SDS011;5378;53.206;13.316;2023-01-10T03:23:26;14.70;;;6.63;;
10659;SDS011;5378;53.206;13.316;2023-01-10T03:26:14;12.20;;;6.10;;
10659;SDS011;5378;53.206;13.316;2023-01-10T03:29:07;18.53;;;6.77;;
10659;SDS011;5378;53.206;13.316;2023-01-10T03:31:59;14.43;;;7.10;;
10659;SDS011;5378;53.206;13.316;2023-01-10T03:34:50;14.57;;;6.67;;
10659;SDS011;5378;53.206;13.316;2023-01-10T03:37:40;15.17;;;6.93;;
10659;SDS011;5378;53.206;13.316;2023-01-10T03:40:34;15.70;;;6.63;;
10659;SDS011;5378;53.206;13.316;2023-01-10T03:43:31;14.03;;;5.50;;
10659;SDS011;5378;53.206;13.316;2023-01-10T03:46:43;22.57;;;6.97;;
10659;SDS011;5378;53.206;13.316;2023-01-10T03:49:36;15.60;;;6.30;;
10659;SDS011;5378;53.206;13.316;2023-01-10T03:52:27;11.97;;;5.77;;
10659;SDS011;5378;53.206;13.316;2023-01-10T03:55:17;16.10;;;7.20;;
10659;SDS011;5378;53.206;13.316;2023-01-10T03:58:07;15.07;;;6.70;;
10659;SDS011;5378;53.206;13.316;2023-01-10T04:00:54;20.70;;;6.90;;
10659;SDS011;5378;53.206;13.316;2023-01-10T04:03:42;19.30;;;7.73;;
10659;SDS011;5378;53.206;13.316;2023-01-10T04:06:29;24.33;;;6.23;;
10659;SDS011;5378;53.206;13.316;2023-01-10T04:09:16;16.67;;;7.23;;
10659;SDS011;5378;53.206;13.316;2023-01-10T04:12:03;21.67;;;7.17;;
10659;SDS011;5378;53.206;13.316;2023-01-10T04:14:52;20.00;;;7.47;;
10659;SDS011;5378;53.206;13.316;2023-01-10T04:17:40;16.50;;;6.83;;
10659;SDS011;5378;53.206;13.316;2023-01-10T04:20:27;20.07;;;7.67;;
10659;SDS011;5378;53.206;13.316;2023-01-10T04:23:14;14.53;;;7.23;;
10659;SDS011;5378;53.206;13.316;2023-01-10T04:26:01;18.27;;;7.33;;
10659;SDS011;5378;53.206;13.316;2023-01-10T04:28:48;22.73;;;7.93;;
10659;SDS011;5378;53.206;13.316;2023-01-10T04:31:36;16.40;;;7.73;;
10659;SDS011;5378;53.206;13.316;2023-01-10T04:34:25;20.73;;;8.10;;
10659;SDS011;5378;53.206;13.316;2023-01-10T04:37:12;23.20;;;8.30;;
10659;SDS011;5378;53.206;13.316;2023-01-10T04:39:59;15.17;;;6.30;;
10659;SDS011;5378;53.206;13.316;2023-01-10T04:42:46;25.97;;;8.30;;
10659;SDS011;5378;53.206;13.316;2023-01-10T04:45:33;21.23;;;8.20;;
10659;SDS011;5378;53.206;13.316;2023-01-10T04:48:21;16.40;;;7.20;;
10659;SDS011;5378;53.206;13.316;2023-01-10T04:51:08;34.63;;;8.47;;
10659;SDS011;5378;53.206;13.316;2023-01-10T04:53:56;22.17;;;8.47;;
10659;SDS011;5378;53.206;13.316;2023-01-10T04:56:43;19.30;;;7.87;;
10659;SDS011;5378;53.206;13.316;2023-01-10T04:59:30;17.70;;;7.30;;
10659;SDS011;5378;53.206;13.316;2023-01-10T05:02:17;17.80;;;7.80;;
10659;SDS011;5378;53.206;13.316;2023-01-10T05:05:06;20.23;;;7.60;;
10659;SDS011;5378;53.206;13.316;2023-01-10T05:07:54;18.73;;;7.43;;
10659;SDS011;5378;53.206;13.316;2023-01-10T05:10:41;17.20;;;7.13;;
10659;SDS011;5378;53.206;13.316;2023-01-10T05:13:28;16.97;;;8.10;;
10659;SDS011;5378;53.206;13.316;2023-01-10T05:16:15;19.67;;;7.97;;
10659;SDS011;5378;53.206;13.316;2023-01-10T05:19:02;24.97;;;7.00;;
10659;SDS011;5378;53.206;13.316;2023-01-10T05:21:51;22.10;;;8.33;;
10659;SDS011;5378;53.206;13.316;2023-01-10T05:24:41;18.73;;;7.53;;
10659;SDS011;5378;53.206;13.316;2023-01-10T05:27:28;21.33;;;8.17;;
10659;SDS011;5378;53.206;13.316;2023-01-10T05:30:16;17.23;;;7.30;;
10659;SDS011;5378;53.206;13.316;2023-01-10T05:33:04;17.10;;;7.83;;
10659;SDS011;5378;53.206;13.316;2023-01-10T05:35:51;16.10;;;6.60;;
10659;SDS011;5378;53.206;13.316;2023-01-10T05:38:39;17.20;;;7.00;;
10659;SDS011;5378;53.206;13.316;2023-01-10T05:41:26;16.67;;;7.70;;
10659;SDS011;5378;53.206;13.316;2023-01-10T05:44:13;17.77;;;8.13;;
10659;SDS011;5378;53.206;13.316;2023-01-10T05:47:01;27.10;;;8.00;;
10659;SDS011;5378;53.206;13.316;2023-01-10T05:49:47;16.87;;;7.50;;
10659;SDS011;5378;53.206;13.316;2023-01-10T05:52:35;18.07;;;7.13;;
10659;SDS011;5378;53.206;13.316;2023-01-10T05:55:23;20.23;;;6.47;;
10659;SDS011;5378;53.206;13.316;2023-01-10T05:58:10;22.23;;;7.43;;
10659;SDS011;5378;53.206;13.316;2023-01-10T06:00:57;17.57;;;7.20;;
10659;SDS011;5378;53.206;13.316;2023-01-10T06:03:44;14.63;;;6.60;;
10659;SDS011;5378;53.206;13.316;2023-01-10T06:06:31;15.70;;;7.43;;
10659;SDS011;5378;53.206;13.316;2023-01-10T06:09:19;12.20;;;5.83;;
10659;SDS011;5378;53.206;13.316;2023-01-10T06:12:07;14.80;;;6.30;;
10659;SDS011;5378;53.206;13.316;2023-01-10T06:14:54;14.60;;;7.90;;
10659;SDS011;5378;53.206;13.316;2023-01-10T06:17:42;15.90;;;6.53;;
10659;SDS011;5378;53.206;13.316;2023-01-10T06:20:30;14.40;;;6.23;;
10659;SDS011;5378;53.206;13.316;2023-01-10T06:23:17;13.20;;;6.13;;
10659;SDS011;5378;53.206;13.316;2023-01-10T06:26:04;17.10;;;6.43;;
10659;SDS011;5378;53.206;13.316;2023-01-10T06:28:52;13.53;;;6.03;;
10659;SDS011;5378;53.206;13.316;2023-01-10T06:31:40;13.53;;;6.77;;
10659;SDS011;5378;53.206;13.316;2023-01-10T06:34:27;16.73;;;6.50;;
10659;SDS011;5378;53.206;13.316;2023-01-10T06:37:14;11.57;;;5.90;;
10659;SDS011;5378;53.206;13.316;2023-01-10T06:40:04;14.23;;;5.73;;
10659;SDS011;5378;53.206;13.316;2023-01-10T06:42:52;17.13;;;6.30;;
10659;SDS011;5378;53.206;13.316;2023-01-10T06:45:40;18.80;;;7.40;;
10659;SDS011;5378;53.206;13.316;2023-01-10T06:48:27;13.37;;;5.13;;
10659;SDS011;5378;53.206;13.316;2023-01-10T06:51:15;8.77;;;5.47;;
10659;SDS011;5378;53.206;13.316;2023-01-10T06:54:05;14.30;;;5.97;;
10659;SDS011;5378;53.206;13.316;2023-01-10T06:56:52;17.63;;;5.40;;
10659;SDS011;5378;53.206;13.316;2023-01-10T06:59:39;20.90;;;6.10;;
10659;SDS011;5378;53.206;13.316;2023-01-10T07:02:27;11.77;;;5.00;;
10659;SDS011;5378;53.206;13.316;2023-01-10T07:05:15;9.53;;;5.33;;
10659;SDS011;5378;53.206;13.316;2023-01-10T07:08:02;24.37;;;6.50;;
10659;SDS011;5378;53.206;13.316;2023-01-10T07:10:49;14.73;;;6.73;;
10659;SDS011;5378;53.206;13.316;2023-01-10T07:13:37;14.40;;;6.60;;
10659;SDS011;5378;53.206;13.316;2023-01-10T07:16:24;11.70;;;5.80;;
10659;SDS011;5378;53.206;13.316;2023-01-10T07:19:12;17.83;;;6.63;;
10659;SDS011;5378;53.206;13.316;2023-01-10T07:22:01;8.70;;;4.83;;
10659;SDS011;5378;53.206;13.316;2023-01-10T07:24:48;11.20;;;5.90;;
10659;SDS011;5378;53.206;13.316;2023-01-10T07:27:35;18.50;;;5.60;;
10659;SDS011;5378;53.206;13.316;2023-01-10T07:30:24;12.13;;;5.40;;
10659;SDS011;5378;53.206;13.316;2023-01-10T07:33:11;22.30;;;5.33;;
10659;SDS011;5378;53.206;13.316;2023-01-10T07:36:00;8.77;;;4.77;;
10659;SDS011;5378;53.206;13.316;2023-01-10T07:38:47;14.13;;;4.53;;
10659;SDS011;5378;53.206;13.316;2023-01-10T07:41:34;7.10;;;4.20;;
10659;SDS011;5378;53.206;13.316;2023-01-10T07:44:21;7.70;;;4.50;;
10659;SDS011;5378;53.206;13.316;2023-01-10T07:47:09;16.90;;;5.60;;
10659;SDS011;5378;53.206;13.316;2023-01-10T07:49:56;14.30;;;4.70;;
10659;SDS011;5378;53.206;13.316;2023-01-10T07:52:44;13.83;;;5.47;;
10659;SDS011;5378;53.206;13.316;2023-01-10T07:55:31;8.60;;;4.90;;
10659;SDS011;5378;53.206;13.316;2023-01-10T07:58:20;12.33;;;4.50;;
10659;SDS011;5378;53.206;13.316;2023-01-10T08:01:07;8.60;;;4.03;;
10659;SDS011;5378;53.206;13.316;2023-01-10T08:03:55;9.27;;;4.70;;
10659;SDS011;5378;53.206;13.316;2023-01-10T08:06:42;11.63;;;4.37;;
10659;SDS011;5378;53.206;13.316;2023-01-10T08:09:31;12.83;;;5.17;;
10659;SDS011;5378;53.206;13.316;2023-01-10T08:12:18;15.20;;;5.07;;
10659;SDS011;5378;53.206;13.316;2023-01-10T08:15:07;12.10;;;5.20;;
10659;SDS011;5378;53.206;13.316;2023-01-10T08:17:57;16.60;;;6.90;;
10659;SDS011;5378;53.206;13.316;2023-01-10T08:20:47;13.87;;;6.30;;
10659;SDS011;5378;53.206;13.316;2023-01-10T08:23:34;22.13;;;5.40;;
10659;SDS011;5378;53.206;13.316;2023-01-10T08:26:23;23.50;;;7.37;;
10659;SDS011;5378;53.206;13.316;2023-01-10T08:29:10;11.37;;;5.20;;
10659;SDS011;5378;53.206;13.316;2023-01-10T08:31:57;16.60;;;6.20;;
10659;SDS011;5378;53.206;13.316;2023-01-10T08:34:45;17.23;;;7.60;;
10659;SDS011;5378;53.206;13.316;2023-01-10T08:37:32;20.07;;;6.60;;
10659;SDS011;5378;53.206;13.316;2023-01-10T08:40:19;14.90;;;5.37;;
10659;SDS011;5378;53.206;13.316;2023-01-10T08:43:08;16.63;;;4.73;;
10659;SDS011;5378;53.206;13.316;2023-01-10T08:45:57;14.93;;;5.43;;
10659;SDS011;5378;53.206;13.316;2023-01-10T08:48:44;13.40;;;5.67;;
10659;SDS011;5378;53.206;13.316;2023-01-10T08:51:31;15.23;;;5.50;;
10659;SDS011;5378;53.206;13.316;2023-01-10T08:54:19;12.17;;;4.77;;
10659;SDS011;5378;53.206;13.316;2023-01-10T08:57:05;11.00;;;5.27;;
10659;SDS011;5378;53.206;13.316;2023-01-10T08:59:54;25.30;;;10.57;;
10659;SDS011;5378;53.206;13.316;2023-01-10T09:02:41;28.37;;;10.03;;
10659;SDS011;5378;53.206;13.316;2023-01-10T09:05:28;12.30;;;4.93;;
10659;SDS011;5378;53.206;13.316;2023-01-10T09:08:16;8.37;;;4.63;;
10659;SDS011;5378;53.206;13.316;2023-01-10T09:11:03;23.40;;;4.20;;
10659;SDS011;5378;53.206;13.316;2023-01-10T09:13:51;12.70;;;5.27;;
10659;SDS011;5378;53.206;13.316;2023-01-10T09:16:39;13.30;;;6.10;;
10659;SDS011;5378;53.206;13.316;2023-01-10T09:19:27;14.10;;;3.60;;
10659;SDS011;5378;53.206;13.316;2023-01-10T09:22:14;10.43;;;4.30;;
10659;SDS011;5378;53.206;13.316;2023-01-10T09:25:02;10.33;;;3.67;;
10659;SDS011;5378;53.206;13.316;2023-01-10T09:27:54;9.27;;;4.10;;
10659;SDS011;5378;53.206;13.316;2023-01-10T09:30:42;15.37;;;3.70;;
10659;SDS011;5378;53.206;13.316;2023-01-10T09:33:31;13.03;;;3.50;;
10659;SDS011;5378;53.206;13.316;2023-01-10T09:36:30;12.70;;;3.73;;
10659;SDS011;5378;53.206;13.316;2023-01-10T09:39:17;6.27;;;3.63;;
10659;SDS011;5378;53.206;13.316;2023-01-10T09:42:12;14.50;;;4.10;;
10659;SDS011;5378;53.206;13.316;2023-01-10T09:45:11;8.37;;;3.57;;
10659;SDS011;5378;53.206;13.316;2023-01-10T09:48:03;8.43;;;3.23;;
10659;SDS011;5378;53.206;13.316;2023-01-10T09:50:59;8.70;;;3.03;;
10659;SDS011;5378;53.206;13.316;2023-01-10T09:54:03;18.17;;;4.30;;
10659;SDS011;5378;53.206;13.316;2023-01-10T09:56:55;7.17;;;3.33;;
10659;SDS011;5378;53.206;13.316;2023-01-10T09:59:46;11.43;;;3.20;;
10659;SDS011;5378;53.206;13.316;2023-01-10T10:02:37;6.13;;;2.90;;
10659;SDS011;5378;53.206;13.316;2023-01-10T10:05:27;6.07;;;3.00;;
10659;SDS011;5378;53.206;13.316;2023-01-10T10:08:16;6.67;;;2.67;;
10659;SDS011;5378;53.206;13.316;2023-01-10T10:11:08;8.13;;;3.30;;
10659;SDS011;5378;53.206;13.316;2023-01-10T10:14:10;7.60;;;2.30;;
10659;SDS011;5378;53.206;13.316;2023-01-10T10:20:18;4.40;;;3.30;;
10659;SDS011;5378;53.206;13.316;2023-01-10T10:23:22;10.10;;;3.03;;
10659;SDS011;5378;53.206;13.316;2023-01-10T10:26:22;13.90;;;2.70;;
10659;SDS011;5378;53.206;13.316;2023-01-10T10:29:21;17.27;;;3.83;;
10659;SDS011;5378;53.206;13.316;2023-01-10T10:32:34;7.03;;;2.37;;
10659;SDS011;5378;53.206;13.316;2023-01-10T10:35:43;8.63;;;3.10;;
10659;SDS011;5378;53.206;13.316;2023-01-10T10:38:38;14.03;;;3.00;;
10659;SDS011;5378;53.206;13.316;2023-01-10T10:41:29;9.03;;;3.43;;
10659;SDS011;5378;53.206;13.316;2023-01-10T10:44:26;6.53;;;2.63;;
10659;SDS011;5378;53.206;13.316;2023-01-10T10:47:19;11.90;;;3.47;;
10659;SDS011;5378;53.206;13.316;2023-01-10T10:50:10;10.47;;;3.30;;
10659;SDS011;5378;53.206;13.316;2023-01-10T10:53:04;10.33;;;3.50;;
10659;SDS011;5378;53.206;13.316;2023-01-10T10:55:53;11.93;;;3.77;;
10659;SDS011;5378;53.206;13.316;2023-01-10T10:58:42;3.60;;;2.43;;
10659;SDS011;5378;53.206;13.316;2023-01-10T11:01:31;7.10;;;2.30;;
10659;SDS011;5378;53.206;13.316;2023-01-10T11:04:20;8.73;;;3.27;;
10659;SDS011;5378;53.206;13.316;2023-01-10T11:07:09;9.77;;;3.03;;
10659;SDS011;5378;53.206;13.316;2023-01-10T11:10:02;7.17;;;2.60;;
10659;SDS011;5378;53.206;13.316;2023-01-10T11:13:19;6.87;;;2.27;;
10659;SDS011;5378;53.206;13.316;2023-01-10T11:16:23;4.73;;;2.40;;
10659;SDS011;5378;53.206;13.316;2023-01-10T11:19:16;9.97;;;2.93;;
10659;SDS011;5378;53.206;13.316;2023-01-10T11:22:05;7.60;;;2.47;;
10659;SDS011;5378;53.206;13.316;2023-01-10T11:24:53;6.60;;;2.53;;
10659;SDS011;5378;53.206;13.316;2023-01-10T11:27:44;7.50;;;2.57;;
10659;SDS011;5378;53.206;13.316;2023-01-10T11:30:34;5.90;;;2.67;;
10659;SDS011;5378;53.206;13.316;2023-01-10T11:33:26;5.07;;;2.70;;
10659;SDS011;5378;53.206;13.316;2023-01-10T11:36:16;22.13;;;2.80;;
10659;SDS011;5378;53.206;13.316;2023-01-10T11:39:03;10.37;;;2.27;;
10659;SDS011;5378;53.206;13.316;2023-01-10T11:41:50;6.40;;;2.63;;
10659;SDS011;5378;53.206;13.316;2023-01-10T11:44:40;6.43;;;3.00;;
10659;SDS011;5378;53.206;13.316;2023-01-10T11:47:28;6.90;;;2.30;;
10659;SDS011;5378;53.206;13.316;2023-01-10T11:50:17;17.23;;;3.20;;
10659;SDS011;5378;53.206;13.316;2023-01-10T11:53:06;10.53;;;2.83;;
10659;SDS011;5378;53.206;13.316;2023-01-10T11:56:23;8.40;;;3.00;;
10659;SDS011;5378;53.206;13.316;2023-01-10T11:59:13;10.23;;;2.90;;
10659;SDS011;5378;53.206;13.316;2023-01-10T12:02:02;12.90;;;3.20;;
10659;SDS011;5378;53.206;13.316;2023-01-10T12:04:58;6.73;;;2.27;;
10659;SDS011;5378;53.206;13.316;2023-01-10T12:07:54;14.47;;;2.80;;
10659;SDS011;5378;53.206;13.316;2023-01-10T12:10:43;9.90;;;3.00;;
10659;SDS011;5378;53.206;13.316;2023-01-10T12:13:44;4.93;;;2.60;;
10659;SDS011;5378;53.206;13.316;2023-01-10T12:16:33;9.43;;;2.40;;
10659;SDS011;5378;53.206;13.316;2023-01-10T12:19:21;17.27;;;3.47;;
10659;SDS011;5378;53.206;13.316;2023-01-10T12:22:09;4.87;;;2.53;;
10659;SDS011;5378;53.206;13.316;2023-01-10T12:25:02;8.80;;;2.90;;
10659;SDS011;5378;53.206;13.316;2023-01-10T12:27:54;17.90;;;3.23;;
10659;SDS011;5378;53.206;13.316;2023-01-10T12:30:43;7.93;;;3.00;;
10659;SDS011;5378;53.206;13.316;2023-01-10T12:33:35;11.37;;;3.43;;
10659;SDS011;5378;53.206;13.316;2023-01-10T12:36:28;17.53;;;3.50;;
10659;SDS011;5378;53.206;13.316;2023-01-10T12:39:22;149.20;;;28.50;;
10659;SDS011;5378;53.206;13.316;2023-01-10T12:42:17;60.90;;;20.47;;
10659;SDS011;5378;53.206;13.316;2023-01-10T12:45:32;51.43;;;19.50;;
10659;SDS011;5378;53.206;13.316;2023-01-10T12:48:26;282.93;;;101.40;;
10659;SDS011;5378;53.206;13.316;2023-01-10T12:51:21;188.47;;;65.50;;
10659;SDS011;5378;53.206;13.316;2023-01-10T12:54:11;276.47;;;94.17;;
10659;SDS011;5378;53.206;13.316;2023-01-10T12:57:04;305.00;;;99.43;;
10659;SDS011;5378;53.206;13.316;2023-01-10T13:00:01;71.70;;;28.17;;
10659;SDS011;5378;53.206;13.316;2023-01-10T13:02:51;31.00;;;12.10;;
10659;SDS011;5378;53.206;13.316;2023-01-10T13:05:40;96.83;;;26.27;;
10659;SDS011;5378;53.206;13.316;2023-01-10T13:08:33;111.93;;;30.47;;
10659;SDS011;5378;53.206;13.316;2023-01-10T13:11:24;103.53;;;27.93;;
10659;SDS011;5378;53.206;13.316;2023-01-10T13:14:21;71.07;;;27.27;;
10659;SDS011;5378;53.206;13.316;2023-01-10T13:17:16;65.13;;;24.80;;
10659;SDS011;5378;53.206;13.316;2023-01-10T13:20:23;476.93;;;159.60;;
10659;SDS011;5378;53.206;13.316;2023-01-10T13:23:22;905.73;;;547.93;;
10659;SDS011;5378;53.206;13.316;2023-01-10T13:26:15;634.67;;;361.50;;
10659;SDS011;5378;53.206;13.316;2023-01-10T13:29:02;394.77;;;164.17;;
10659;SDS011;5378;53.206;13.316;2023-01-10T13:31:59;148.23;;;60.10;;
10659;SDS011;5378;53.206;13.316;2023-01-10T13:34:47;98.93;;;47.57;;
10659;SDS011;5378;53.206;13.316;2023-01-10T13:37:35;72.83;;;32.60;;
10659;SDS011;5378;53.206;13.316;2023-01-10T13:40:26;120.33;;;48.93;;
10659;SDS011;5378;53.206;13.316;2023-01-10T13:46:47;90.87;;;44.07;;
10659;SDS011;5378;53.206;13.316;2023-01-10T13:49:41;65.43;;;27.70;;
10659;SDS011;5378;53.206;13.316;2023-01-10T13:52:32;34.43;;;12.30;;
10659;SDS011;5378;53.206;13.316;2023-01-10T13:55:21;19.20;;;10.83;;
10659;SDS011;5378;53.206;13.316;2023-01-10T14:01:51;12.50;;;5.50;;
10659;SDS011;5378;53.206;13.316;2023-01-10T14:04:57;20.50;;;5.70;;
10659;SDS011;5378;53.206;13.316;2023-01-10T14:07:47;11.97;;;4.50;;
10659;SDS011;5378;53.206;13.316;2023-01-10T14:10:35;13.80;;;4.30;;
10659;SDS011;5378;53.206;13.316;2023-01-10T14:13:22;11.57;;;3.90;;
10659;SDS011;5378;53.206;13.316;2023-01-10T14:19:20;8.40;;;3.63;;
10659;SDS011;5378;53.206;13.316;2023-01-10T14:22:22;10.20;;;3.10;;
10659;SDS011;5378;53.206;13.316;2023-01-10T14:25:14;15.07;;;3.40;;
10659;SDS011;5378;53.206;13.316;2023-01-10T14:28:05;13.73;;;3.47;;
10659;SDS011;5378;53.206;13.316;2023-01-10T14:31:05;7.87;;;3.23;;
10659;SDS011;5378;53.206;13.316;2023-01-10T14:33:54;8.17;;;2.20;;
10659;SDS011;5378;53.206;13.316;2023-01-10T14:36:48;9.37;;;3.63;;
10659;SDS011;5378;53.206;13.316;2023-01-10T14:39:40;4.30;;;1.90;;
10659;SDS011;5378;53.206;13.316;2023-01-10T14:42:28;12.73;;;2.60;;
10659;SDS011;5378;53.206;13.316;2023-01-10T14:45:19;11.30;;;3.17;;
10659;SDS011;5378;53.206;13.316;2023-01-10T14:48:21;10.90;;;3.57;;
10659;SDS011;5378;53.206;13.316;2023-01-10T14:51:16;8.03;;;3.10;;
10659;SDS011;5378;53.206;13.316;2023-01-10T14:54:09;5.60;;;3.23;;
10659;SDS011;5378;53.206;13.316;2023-01-10T14:56:59;12.87;;;3.93;;
10659;SDS011;5378;53.206;13.316;2023-01-10T14:59:46;12.63;;;3.50;;
10659;SDS011;5378;53.206;13.316;2023-01-10T15:02:34;15.77;;;2.50;;
10659;SDS011;5378;53.206;13.316;2023-01-10T15:05:22;9.10;;;3.37;;
10659;SDS011;5378;53.206;13.316;2023-01-10T15:08:14;16.13;;;3.60;;
10659;SDS011;5378;53.206;13.316;2023-01-10T15:11:04;5.10;;;3.10;;
10659;SDS011;5378;53.206;13.316;2023-01-10T15:13:55;13.00;;;4.23;;
10659;SDS011;5378;53.206;13.316;2023-01-10T15:16:47;11.27;;;5.50;;
10659;SDS011;5378;53.206;13.316;2023-01-10T15:19:37;10.40;;;3.87;;
10659;SDS011;5378;53.206;13.316;2023-01-10T15:22:26;10.87;;;3.97;;
10659;SDS011;5378;53.206;13.316;2023-01-10T15:25:24;6.97;;;3.57;;
10659;SDS011;5378;53.206;13.316;2023-01-10T15:28:15;9.83;;;4.10;;
10659;SDS011;5378;53.206;13.316;2023-01-10T15:31:06;11.83;;;5.10;;
10659;SDS011;5378;53.206;13.316;2023-01-10T15:33:55;10.80;;;4.30;;
10659;SDS011;5378;53.206;13.316;2023-01-10T15:36:45;14.10;;;3.27;;
10659;SDS011;5378;53.206;13.316;2023-01-10T15:39:35;10.63;;;3.27;;
10659;SDS011;5378;53.206;13.316;2023-01-10T15:42:25;9.40;;;2.97;;
10659;SDS011;5378;53.206;13.316;2023-01-10T15:45:16;19.57;;;3.50;;
10659;SDS011;5378;53.206;13.316;2023-01-10T15:51:01;11.60;;;3.43;;
10659;SDS011;5378;53.206;13.316;2023-01-10T15:53:55;7.17;;;3.10;;
10659;SDS011;5378;53.206;13.316;2023-01-10T15:56:47;7.73;;;2.63;;
10659;SDS011;5378;53.206;13.316;2023-01-10T15:59:37;14.87;;;3.97;;
10659;SDS011;5378;53.206;13.316;2023-01-10T16:02:27;9.37;;;3.57;;
10659;SDS011;5378;53.206;13.316;2023-01-10T16:05:16;7.53;;;3.10;;
10659;SDS011;5378;53.206;13.316;2023-01-10T16:08:05;9.93;;;3.10;;
10659;SDS011;5378;53.206;13.316;2023-01-10T16:10:53;12.40;;;3.60;;
10659;SDS011;5378;53.206;13.316;2023-01-10T16:13:42;14.30;;;3.70;;
10659;SDS011;5378;53.206;13.316;2023-01-10T16:16:28;13.63;;;4.77;;
10659;SDS011;5378;53.206;13.316;2023-01-10T16:19:16;8.07;;;3.90;;
10659;SDS011;5378;53.206;13.316;2023-01-10T16:22:02;14.60;;;4.50;;
10659;SDS011;5378;53.206;13.316;2023-01-10T16:24:51;13.73;;;3.93;;
10659;SDS011;5378;53.206;13.316;2023-01-10T16:27:39;13.70;;;3.67;;
10659;SDS011;5378;53.206;13.316;2023-01-10T16:30:27;19.13;;;4.80;;
10659;SDS011;5378;53.206;13.316;2023-01-10T16:33:16;11.60;;;3.50;;
10659;SDS011;5378;53.206;13.316;2023-01-10T16:36:12;11.47;;;3.27;;
10659;SDS011;5378;53.206;13.316;2023-01-10T16:39:01;14.27;;;3.67;;
10659;SDS011;5378;53.206;13.316;2023-01-10T16:41:53;10.93;;;4.50;;
10659;SDS011;5378;53.206;13.316;2023-01-10T16:44:57;8.60;;;3.40;;
10659;SDS011;5378;53.206;13.316;2023-01-10T16:47:44;9.03;;;4.00;;
10659;SDS011;5378;53.206;13.316;2023-01-10T16:50:31;9.63;;;3.73;;
10659;SDS011;5378;53.206;13.316;2023-01-10T16:53:19;11.70;;;4.27;;
10659;SDS011;5378;53.206;13.316;2023-01-10T16:56:07;15.10;;;5.30;;
10659;SDS011;5378;53.206;13.316;2023-01-10T16:58:58;16.20;;;5.70;;
10659;SDS011;5378;53.206;13.316;2023-01-10T17:01:47;22.27;;;6.10;;
10659;SDS011;5378;53.206;13.316;2023-01-10T17:04:37;17.63;;;6.83;;
10659;SDS011;5378;53.206;13.316;2023-01-10T17:07:24;13.90;;;6.60;;
10659;SDS011;5378;53.206;13.316;2023-01-10T17:10:11;19.03;;;6.20;;
10659;SDS011;5378;53.206;13.316;2023-01-10T17:12:59;16.00;;;7.80;;
10659;SDS011;5378;53.206;13.316;2023-01-10T17:15:49;14.63;;;7.07;;